sensor_id;sensor_type;location;lat;lon;timestamp;P1;durP1;ratioP1;P2;durP2;ratioP2
9334;SDS011;4706;41.844;26.082;2022-12-24T00:01:07;121.93;;;82.77;;
9334;SDS011;4706;41.844;26.082;2022-12-24T00:03:35;122.60;;;68.50;;
9334;SDS011;4706;41.844;26.082;2022-12-24T00:06:04;107.43;;;68.77;;
9334;SDS011;4706;41.844;26.082;2022-12-24T00:08:36;115.13;;;66.53;;
9334;SDS011;4706;41.844;26.082;2022-12-24T00:11:02;115.80;;;66.70;;
9334;SDS011;4706;41.844;26.082;2022-12-24T00:13:27;113.10;;;65.33;;
9334;SDS011;4706;41.844;26.082;2022-12-24T00:15:53;106.27;;;63.63;;
9334;SDS011;4706;41.844;26.082;2022-12-24T00:18:18;109.00;;;61.83;;
9334;SDS011;4706;41.844;26.082;2022-12-24T00:20:45;104.37;;;60.63;;
9334;SDS011;4706;41.844;26.082;2022-12-24T00:23:12;109.17;;;59.57;;
9334;SDS011;4706;41.844;26.082;2022-12-24T00:25:38;74.10;;;55.30;;
9334;SDS011;4706;41.844;26.082;2022-12-24T00:28:03;83.90;;;48.40;;
9334;SDS011;4706;41.844;26.082;2022-12-24T00:30:29;74.83;;;44.83;;
9334;SDS011;4706;41.844;26.082;2022-12-24T00:32:54;119.63;;;38.23;;
9334;SDS011;4706;41.844;26.082;2022-12-24T00:35:20;69.13;;;40.03;;
9334;SDS011;4706;41.844;26.082;2022-12-24T00:37:46;108.80;;;43.83;;
9334;SDS011;4706;41.844;26.082;2022-12-24T00:40:12;89.97;;;52.43;;
9334;SDS011;4706;41.844;26.082;2022-12-24T00:42:38;116.07;;;63.87;;
9334;SDS011;4706;41.844;26.082;2022-12-24T00:45:04;128.83;;;68.70;;
9334;SDS011;4706;41.844;26.082;2022-12-24T00:47:29;110.77;;;59.03;;
9334;SDS011;4706;41.844;26.082;2022-12-24T00:49:55;107.43;;;61.77;;
9334;SDS011;4706;41.844;26.082;2022-12-24T00:52:20;110.17;;;54.87;;
9334;SDS011;4706;41.844;26.082;2022-12-24T00:54:46;111.73;;;48.63;;
9334;SDS011;4706;41.844;26.082;2022-12-24T00:57:11;85.87;;;43.93;;
9334;SDS011;4706;41.844;26.082;2022-12-24T00:59:37;77.17;;;39.20;;
9334;SDS011;4706;41.844;26.082;2022-12-24T01:02:02;68.60;;;38.07;;
9334;SDS011;4706;41.844;26.082;2022-12-24T01:04:28;103.13;;;40.40;;
9334;SDS011;4706;41.844;26.082;2022-12-24T01:07:12;94.70;;;39.63;;
9334;SDS011;4706;41.844;26.082;2022-12-24T01:09:37;74.07;;;34.43;;
9334;SDS011;4706;41.844;26.082;2022-12-24T01:12:03;96.53;;;41.80;;
9334;SDS011;4706;41.844;26.082;2022-12-24T01:14:29;93.33;;;50.20;;
9334;SDS011;4706;41.844;26.082;2022-12-24T01:16:54;62.97;;;36.97;;
9334;SDS011;4706;41.844;26.082;2022-12-24T01:19:19;84.13;;;38.10;;
9334;SDS011;4706;41.844;26.082;2022-12-24T01:21:45;120.67;;;38.83;;
9334;SDS011;4706;41.844;26.082;2022-12-24T01:24:14;71.33;;;36.53;;
9334;SDS011;4706;41.844;26.082;2022-12-24T01:26:40;86.17;;;37.43;;
9334;SDS011;4706;41.844;26.082;2022-12-24T01:29:06;89.57;;;35.47;;
9334;SDS011;4706;41.844;26.082;2022-12-24T01:31:32;84.40;;;35.77;;
9334;SDS011;4706;41.844;26.082;2022-12-24T01:33:57;57.67;;;34.07;;
9334;SDS011;4706;41.844;26.082;2022-12-24T01:36:23;62.93;;;35.67;;
9334;SDS011;4706;41.844;26.082;2022-12-24T01:38:48;47.60;;;35.07;;
9334;SDS011;4706;41.844;26.082;2022-12-24T01:41:15;57.97;;;35.17;;
9334;SDS011;4706;41.844;26.082;2022-12-24T01:46:47;57.40;;;33.80;;
9334;SDS011;4706;41.844;26.082;2022-12-24T01:49:16;57.80;;;35.47;;
9334;SDS011;4706;41.844;26.082;2022-12-24T01:51:43;68.63;;;36.33;;
9334;SDS011;4706;41.844;26.082;2022-12-24T01:56:51;76.97;;;38.10;;
9334;SDS011;4706;41.844;26.082;2022-12-24T01:59:29;80.87;;;38.43;;
9334;SDS011;4706;41.844;26.082;2022-12-24T02:01:55;82.50;;;38.70;;
9334;SDS011;4706;41.844;26.082;2022-12-24T02:04:26;73.40;;;42.07;;
9334;SDS011;4706;41.844;26.082;2022-12-24T02:06:56;82.33;;;44.53;;
9334;SDS011;4706;41.844;26.082;2022-12-24T02:09:21;103.47;;;43.67;;
9334;SDS011;4706;41.844;26.082;2022-12-24T02:11:47;91.17;;;40.87;;
9334;SDS011;4706;41.844;26.082;2022-12-24T02:14:13;97.10;;;37.20;;
9334;SDS011;4706;41.844;26.082;2022-12-24T02:16:46;89.93;;;35.93;;
9334;SDS011;4706;41.844;26.082;2022-12-24T02:19:41;76.17;;;34.90;;
9334;SDS011;4706;41.844;26.082;2022-12-24T02:25:48;86.10;;;33.53;;
9334;SDS011;4706;41.844;26.082;2022-12-24T02:31:24;75.50;;;30.90;;
9334;SDS011;4706;41.844;26.082;2022-12-24T02:37:01;89.07;;;33.30;;
9334;SDS011;4706;41.844;26.082;2022-12-24T02:42:14;115.27;;;34.83;;
9334;SDS011;4706;41.844;26.082;2022-12-24T02:44:46;94.90;;;34.37;;
9334;SDS011;4706;41.844;26.082;2022-12-24T02:47:20;84.63;;;34.90;;
9334;SDS011;4706;41.844;26.082;2022-12-24T02:49:48;109.53;;;41.60;;
9334;SDS011;4706;41.844;26.082;2022-12-24T02:52:33;145.40;;;78.53;;
9334;SDS011;4706;41.844;26.082;2022-12-24T02:55:04;105.30;;;57.20;;
9334;SDS011;4706;41.844;26.082;2022-12-24T03:00:27;73.30;;;43.77;;
9334;SDS011;4706;41.844;26.082;2022-12-24T03:11:14;89.27;;;40.07;;
9334;SDS011;4706;41.844;26.082;2022-12-24T03:13:41;71.97;;;29.90;;
9334;SDS011;4706;41.844;26.082;2022-12-24T03:16:09;77.60;;;30.47;;
9334;SDS011;4706;41.844;26.082;2022-12-24T03:18:39;93.80;;;35.90;;
9334;SDS011;4706;41.844;26.082;2022-12-24T03:21:53;71.53;;;31.07;;
9334;SDS011;4706;41.844;26.082;2022-12-24T03:23:59;84.60;;;31.07;;
9334;SDS011;4706;41.844;26.082;2022-12-24T03:26:25;116.63;;;31.97;;
9334;SDS011;4706;41.844;26.082;2022-12-24T03:28:53;59.80;;;31.10;;
9334;SDS011;4706;41.844;26.082;2022-12-24T03:31:18;82.40;;;32.03;;
9334;SDS011;4706;41.844;26.082;2022-12-24T03:33:44;80.27;;;30.97;;
9334;SDS011;4706;41.844;26.082;2022-12-24T03:36:11;96.87;;;33.20;;
9334;SDS011;4706;41.844;26.082;2022-12-24T03:38:37;79.67;;;32.83;;
9334;SDS011;4706;41.844;26.082;2022-12-24T03:41:03;97.07;;;34.17;;
9334;SDS011;4706;41.844;26.082;2022-12-24T03:43:29;103.43;;;33.13;;
9334;SDS011;4706;41.844;26.082;2022-12-24T03:45:54;85.30;;;32.07;;
9334;SDS011;4706;41.844;26.082;2022-12-24T03:48:20;73.67;;;34.10;;
9334;SDS011;4706;41.844;26.082;2022-12-24T03:50:45;111.67;;;34.53;;
9334;SDS011;4706;41.844;26.082;2022-12-24T03:53:11;85.17;;;27.73;;
9334;SDS011;4706;41.844;26.082;2022-12-24T03:55:37;76.13;;;26.37;;
9334;SDS011;4706;41.844;26.082;2022-12-24T03:58:03;94.50;;;27.10;;
9334;SDS011;4706;41.844;26.082;2022-12-24T04:00:29;73.27;;;26.80;;
9334;SDS011;4706;41.844;26.082;2022-12-24T04:02:54;93.83;;;27.53;;
9334;SDS011;4706;41.844;26.082;2022-12-24T04:05:20;78.73;;;26.97;;
9334;SDS011;4706;41.844;26.082;2022-12-24T04:07:45;84.17;;;24.47;;
9334;SDS011;4706;41.844;26.082;2022-12-24T04:10:12;71.03;;;28.17;;
9334;SDS011;4706;41.844;26.082;2022-12-24T04:12:38;49.80;;;25.47;;
9334;SDS011;4706;41.844;26.082;2022-12-24T04:15:04;58.23;;;24.27;;
9334;SDS011;4706;41.844;26.082;2022-12-24T04:17:30;49.13;;;25.90;;
9334;SDS011;4706;41.844;26.082;2022-12-24T04:19:56;69.90;;;26.00;;
9334;SDS011;4706;41.844;26.082;2022-12-24T04:22:21;60.73;;;24.67;;
9334;SDS011;4706;41.844;26.082;2022-12-24T04:24:47;63.03;;;25.77;;
9334;SDS011;4706;41.844;26.082;2022-12-24T04:27:16;52.73;;;25.30;;
9334;SDS011;4706;41.844;26.082;2022-12-24T04:29:41;68.00;;;25.43;;
9334;SDS011;4706;41.844;26.082;2022-12-24T04:32:07;52.20;;;25.40;;
9334;SDS011;4706;41.844;26.082;2022-12-24T04:34:34;48.60;;;24.77;;
9334;SDS011;4706;41.844;26.082;2022-12-24T04:37:00;48.17;;;24.07;;
9334;SDS011;4706;41.844;26.082;2022-12-24T04:39:26;43.67;;;24.90;;
9334;SDS011;4706;41.844;26.082;2022-12-24T04:41:51;50.10;;;24.13;;
9334;SDS011;4706;41.844;26.082;2022-12-24T04:44:16;52.80;;;25.37;;
9334;SDS011;4706;41.844;26.082;2022-12-24T04:46:42;41.37;;;25.23;;
9334;SDS011;4706;41.844;26.082;2022-12-24T04:49:07;46.83;;;27.00;;
9334;SDS011;4706;41.844;26.082;2022-12-24T04:51:33;45.00;;;30.47;;
9334;SDS011;4706;41.844;26.082;2022-12-24T04:53:59;42.33;;;29.67;;
9334;SDS011;4706;41.844;26.082;2022-12-24T04:56:26;45.23;;;28.27;;
9334;SDS011;4706;41.844;26.082;2022-12-24T04:58:53;48.57;;;28.57;;
9334;SDS011;4706;41.844;26.082;2022-12-24T05:01:23;52.33;;;25.43;;
9334;SDS011;4706;41.844;26.082;2022-12-24T05:03:52;41.20;;;23.17;;
9334;SDS011;4706;41.844;26.082;2022-12-24T05:06:21;61.37;;;26.43;;
9334;SDS011;4706;41.844;26.082;2022-12-24T05:08:49;44.27;;;27.13;;
9334;SDS011;4706;41.844;26.082;2022-12-24T05:11:15;65.27;;;33.17;;
9334;SDS011;4706;41.844;26.082;2022-12-24T05:13:41;100.23;;;47.30;;
9334;SDS011;4706;41.844;26.082;2022-12-24T05:16:08;73.97;;;26.80;;
9334;SDS011;4706;41.844;26.082;2022-12-24T05:18:34;68.90;;;23.27;;
9334;SDS011;4706;41.844;26.082;2022-12-24T05:21:00;71.57;;;26.23;;
9334;SDS011;4706;41.844;26.082;2022-12-24T05:23:25;52.47;;;27.00;;
9334;SDS011;4706;41.844;26.082;2022-12-24T05:26:32;61.90;;;25.67;;
9334;SDS011;4706;41.844;26.082;2022-12-24T05:28:58;40.33;;;23.27;;
9334;SDS011;4706;41.844;26.082;2022-12-24T05:31:25;43.83;;;25.97;;
9334;SDS011;4706;41.844;26.082;2022-12-24T05:33:51;54.30;;;24.80;;
9334;SDS011;4706;41.844;26.082;2022-12-24T05:36:19;42.77;;;26.10;;
9334;SDS011;4706;41.844;26.082;2022-12-24T05:38:45;45.53;;;21.17;;
9334;SDS011;4706;41.844;26.082;2022-12-24T05:41:10;51.03;;;22.17;;
9334;SDS011;4706;41.844;26.082;2022-12-24T05:43:36;50.83;;;24.90;;
9334;SDS011;4706;41.844;26.082;2022-12-24T05:46:03;50.80;;;25.23;;
9334;SDS011;4706;41.844;26.082;2022-12-24T05:48:30;45.77;;;27.10;;
9334;SDS011;4706;41.844;26.082;2022-12-24T05:50:56;43.47;;;23.77;;
9334;SDS011;4706;41.844;26.082;2022-12-24T05:53:22;57.60;;;25.73;;
9334;SDS011;4706;41.844;26.082;2022-12-24T05:55:47;51.83;;;30.07;;
9334;SDS011;4706;41.844;26.082;2022-12-24T05:58:13;48.37;;;24.30;;
9334;SDS011;4706;41.844;26.082;2022-12-24T06:00:39;42.60;;;24.07;;
9334;SDS011;4706;41.844;26.082;2022-12-24T06:03:06;74.13;;;24.97;;
9334;SDS011;4706;41.844;26.082;2022-12-24T06:05:31;44.90;;;20.87;;
9334;SDS011;4706;41.844;26.082;2022-12-24T06:07:57;53.07;;;21.23;;
9334;SDS011;4706;41.844;26.082;2022-12-24T06:10:22;46.20;;;22.07;;
9334;SDS011;4706;41.844;26.082;2022-12-24T06:12:48;55.17;;;20.47;;
9334;SDS011;4706;41.844;26.082;2022-12-24T06:15:13;37.27;;;20.50;;
9334;SDS011;4706;41.844;26.082;2022-12-24T06:17:39;54.10;;;22.70;;
9334;SDS011;4706;41.844;26.082;2022-12-24T06:20:05;39.00;;;22.30;;
9334;SDS011;4706;41.844;26.082;2022-12-24T06:22:31;71.60;;;23.43;;
9334;SDS011;4706;41.844;26.082;2022-12-24T06:24:56;35.67;;;20.53;;
9334;SDS011;4706;41.844;26.082;2022-12-24T06:27:22;61.23;;;20.73;;
9334;SDS011;4706;41.844;26.082;2022-12-24T06:29:47;43.27;;;20.47;;
9334;SDS011;4706;41.844;26.082;2022-12-24T06:32:12;41.47;;;22.13;;
9334;SDS011;4706;41.844;26.082;2022-12-24T06:34:38;64.80;;;23.73;;
9334;SDS011;4706;41.844;26.082;2022-12-24T06:37:04;81.50;;;25.10;;
9334;SDS011;4706;41.844;26.082;2022-12-24T06:39:29;52.50;;;25.73;;
9334;SDS011;4706;41.844;26.082;2022-12-24T06:41:55;54.63;;;26.47;;
9334;SDS011;4706;41.844;26.082;2022-12-24T06:44:20;48.37;;;25.23;;
9334;SDS011;4706;41.844;26.082;2022-12-24T06:46:46;50.53;;;26.23;;
9334;SDS011;4706;41.844;26.082;2022-12-24T06:49:11;117.17;;;31.07;;
9334;SDS011;4706;41.844;26.082;2022-12-24T06:51:37;52.00;;;28.83;;
9334;SDS011;4706;41.844;26.082;2022-12-24T06:54:03;62.63;;;25.73;;
9334;SDS011;4706;41.844;26.082;2022-12-24T06:56:28;55.33;;;25.03;;
9334;SDS011;4706;41.844;26.082;2022-12-24T06:58:54;47.70;;;28.93;;
9334;SDS011;4706;41.844;26.082;2022-12-24T07:01:19;35.67;;;23.83;;
9334;SDS011;4706;41.844;26.082;2022-12-24T07:03:45;34.10;;;22.23;;
9334;SDS011;4706;41.844;26.082;2022-12-24T07:06:14;28.83;;;20.50;;
9334;SDS011;4706;41.844;26.082;2022-12-24T07:08:50;43.90;;;19.57;;
9334;SDS011;4706;41.844;26.082;2022-12-24T07:11:16;40.13;;;21.37;;
9334;SDS011;4706;41.844;26.082;2022-12-24T07:13:42;40.50;;;23.03;;
9334;SDS011;4706;41.844;26.082;2022-12-24T07:16:07;44.40;;;23.67;;
9334;SDS011;4706;41.844;26.082;2022-12-24T07:18:33;46.40;;;21.90;;
9334;SDS011;4706;41.844;26.082;2022-12-24T07:20:58;83.60;;;25.70;;
9334;SDS011;4706;41.844;26.082;2022-12-24T07:23:25;53.60;;;25.30;;
9334;SDS011;4706;41.844;26.082;2022-12-24T07:25:51;46.00;;;26.43;;
9334;SDS011;4706;41.844;26.082;2022-12-24T07:28:16;61.67;;;26.83;;
9334;SDS011;4706;41.844;26.082;2022-12-24T07:30:41;50.13;;;25.53;;
9334;SDS011;4706;41.844;26.082;2022-12-24T07:33:07;54.97;;;27.93;;
9334;SDS011;4706;41.844;26.082;2022-12-24T07:35:33;54.23;;;34.23;;
9334;SDS011;4706;41.844;26.082;2022-12-24T07:38:00;56.27;;;27.73;;
9334;SDS011;4706;41.844;26.082;2022-12-24T07:40:26;53.33;;;23.10;;
9334;SDS011;4706;41.844;26.082;2022-12-24T07:42:51;41.40;;;24.73;;
9334;SDS011;4706;41.844;26.082;2022-12-24T07:45:17;45.10;;;30.33;;
9334;SDS011;4706;41.844;26.082;2022-12-24T07:47:42;50.00;;;29.10;;
9334;SDS011;4706;41.844;26.082;2022-12-24T07:50:08;76.93;;;37.50;;
9334;SDS011;4706;41.844;26.082;2022-12-24T07:52:34;52.67;;;31.13;;
9334;SDS011;4706;41.844;26.082;2022-12-24T07:54:59;64.27;;;34.83;;
9334;SDS011;4706;41.844;26.082;2022-12-24T07:57:24;40.37;;;24.80;;
9334;SDS011;4706;41.844;26.082;2022-12-24T07:59:50;41.53;;;23.87;;
9334;SDS011;4706;41.844;26.082;2022-12-24T08:02:16;59.23;;;25.17;;
9334;SDS011;4706;41.844;26.082;2022-12-24T08:04:41;47.77;;;25.77;;
9334;SDS011;4706;41.844;26.082;2022-12-24T08:07:07;60.27;;;21.40;;
9334;SDS011;4706;41.844;26.082;2022-12-24T08:09:33;67.87;;;30.50;;
9334;SDS011;4706;41.844;26.082;2022-12-24T08:12:00;48.30;;;26.37;;
9334;SDS011;4706;41.844;26.082;2022-12-24T08:14:27;61.33;;;27.47;;
9334;SDS011;4706;41.844;26.082;2022-12-24T08:16:53;72.77;;;33.87;;
9334;SDS011;4706;41.844;26.082;2022-12-24T08:19:19;62.70;;;28.63;;
9334;SDS011;4706;41.844;26.082;2022-12-24T08:21:44;53.13;;;29.37;;
9334;SDS011;4706;41.844;26.082;2022-12-24T08:24:10;51.27;;;27.90;;
9334;SDS011;4706;41.844;26.082;2022-12-24T08:26:35;56.37;;;27.07;;
9334;SDS011;4706;41.844;26.082;2022-12-24T08:29:01;50.67;;;31.17;;
9334;SDS011;4706;41.844;26.082;2022-12-24T08:31:27;46.43;;;24.77;;
9334;SDS011;4706;41.844;26.082;2022-12-24T08:33:53;33.83;;;22.67;;
9334;SDS011;4706;41.844;26.082;2022-12-24T08:36:19;40.40;;;20.77;;
9334;SDS011;4706;41.844;26.082;2022-12-24T08:38:44;27.47;;;18.63;;
9334;SDS011;4706;41.844;26.082;2022-12-24T08:41:10;32.87;;;19.80;;
9334;SDS011;4706;41.844;26.082;2022-12-24T08:43:35;39.80;;;21.43;;
9334;SDS011;4706;41.844;26.082;2022-12-24T08:46:02;34.00;;;19.23;;
9334;SDS011;4706;41.844;26.082;2022-12-24T08:48:29;37.00;;;19.80;;
9334;SDS011;4706;41.844;26.082;2022-12-24T08:50:55;29.67;;;18.50;;
9334;SDS011;4706;41.844;26.082;2022-12-24T08:53:20;32.97;;;19.73;;
9334;SDS011;4706;41.844;26.082;2022-12-24T08:55:46;50.43;;;20.53;;
9334;SDS011;4706;41.844;26.082;2022-12-24T08:58:12;31.10;;;20.90;;
9334;SDS011;4706;41.844;26.082;2022-12-24T09:00:38;32.07;;;23.80;;
9334;SDS011;4706;41.844;26.082;2022-12-24T09:03:03;36.50;;;21.87;;
9334;SDS011;4706;41.844;26.082;2022-12-24T09:05:29;38.80;;;26.30;;
9334;SDS011;4706;41.844;26.082;2022-12-24T09:07:55;41.50;;;27.07;;
9334;SDS011;4706;41.844;26.082;2022-12-24T09:10:20;43.30;;;27.67;;
9334;SDS011;4706;41.844;26.082;2022-12-24T09:12:46;37.00;;;26.43;;
9334;SDS011;4706;41.844;26.082;2022-12-24T09:15:12;39.40;;;27.33;;
9334;SDS011;4706;41.844;26.082;2022-12-24T09:17:38;42.60;;;30.87;;
9334;SDS011;4706;41.844;26.082;2022-12-24T09:20:04;44.73;;;31.17;;
9334;SDS011;4706;41.844;26.082;2022-12-24T09:22:31;42.93;;;28.20;;
9334;SDS011;4706;41.844;26.082;2022-12-24T09:24:59;42.97;;;32.03;;
9334;SDS011;4706;41.844;26.082;2022-12-24T09:27:24;48.13;;;32.03;;
9334;SDS011;4706;41.844;26.082;2022-12-24T09:29:49;56.20;;;29.70;;
9334;SDS011;4706;41.844;26.082;2022-12-24T09:32:15;50.20;;;33.10;;
9334;SDS011;4706;41.844;26.082;2022-12-24T09:34:41;55.20;;;35.67;;
9334;SDS011;4706;41.844;26.082;2022-12-24T09:37:06;50.10;;;34.93;;
9334;SDS011;4706;41.844;26.082;2022-12-24T09:39:32;48.17;;;32.10;;
9334;SDS011;4706;41.844;26.082;2022-12-24T09:53:23;49.57;;;36.07;;
9334;SDS011;4706;41.844;26.082;2022-12-24T09:55:57;43.40;;;31.27;;
9334;SDS011;4706;41.844;26.082;2022-12-24T09:58:30;37.13;;;26.50;;
9334;SDS011;4706;41.844;26.082;2022-12-24T10:01:00;38.00;;;28.13;;
9334;SDS011;4706;41.844;26.082;2022-12-24T10:03:26;39.93;;;30.37;;
9334;SDS011;4706;41.844;26.082;2022-12-24T10:11:23;47.37;;;36.43;;
9334;SDS011;4706;41.844;26.082;2022-12-24T10:17:18;45.30;;;33.47;;
9334;SDS011;4706;41.844;26.082;2022-12-24T10:19:22;40.53;;;31.00;;
9334;SDS011;4706;41.844;26.082;2022-12-24T10:27:25;36.93;;;29.23;;
9334;SDS011;4706;41.844;26.082;2022-12-24T10:29:59;37.97;;;28.83;;
9334;SDS011;4706;41.844;26.082;2022-12-24T10:32:29;32.80;;;25.53;;
9334;SDS011;4706;41.844;26.082;2022-12-24T10:34:58;34.97;;;26.13;;
9334;SDS011;4706;41.844;26.082;2022-12-24T10:37:28;38.43;;;28.03;;
9334;SDS011;4706;41.844;26.082;2022-12-24T10:39:54;36.43;;;28.97;;
9334;SDS011;4706;41.844;26.082;2022-12-24T10:42:22;35.70;;;27.63;;
9334;SDS011;4706;41.844;26.082;2022-12-24T10:44:56;37.17;;;26.50;;
9334;SDS011;4706;41.844;26.082;2022-12-24T10:47:27;32.73;;;25.00;;
9334;SDS011;4706;41.844;26.082;2022-12-24T10:50:02;33.83;;;26.30;;
9334;SDS011;4706;41.844;26.082;2022-12-24T10:52:34;31.03;;;22.83;;
9334;SDS011;4706;41.844;26.082;2022-12-24T10:57:55;37.13;;;28.37;;
9334;SDS011;4706;41.844;26.082;2022-12-24T11:00:25;33.97;;;26.80;;
9334;SDS011;4706;41.844;26.082;2022-12-24T11:03:04;37.00;;;26.63;;
9334;SDS011;4706;41.844;26.082;2022-12-24T11:05:37;29.03;;;23.67;;
9334;SDS011;4706;41.844;26.082;2022-12-24T11:10:41;42.33;;;28.87;;
9334;SDS011;4706;41.844;26.082;2022-12-24T11:16:14;41.27;;;31.97;;
9334;SDS011;4706;41.844;26.082;2022-12-24T11:18:48;41.37;;;28.77;;
9334;SDS011;4706;41.844;26.082;2022-12-24T11:21:29;49.47;;;31.90;;
9334;SDS011;4706;41.844;26.082;2022-12-24T11:24:03;60.23;;;37.73;;
9334;SDS011;4706;41.844;26.082;2022-12-24T11:26:33;50.30;;;33.30;;
9334;SDS011;4706;41.844;26.082;2022-12-24T11:34:54;35.30;;;27.67;;
9334;SDS011;4706;41.844;26.082;2022-12-24T11:37:21;37.90;;;28.50;;
9334;SDS011;4706;41.844;26.082;2022-12-24T11:39:49;38.03;;;28.83;;
9334;SDS011;4706;41.844;26.082;2022-12-24T11:42:24;43.53;;;32.30;;
9334;SDS011;4706;41.844;26.082;2022-12-24T11:45:03;43.90;;;32.27;;
9334;SDS011;4706;41.844;26.082;2022-12-24T11:50:18;45.20;;;33.17;;
9334;SDS011;4706;41.844;26.082;2022-12-24T11:52:45;51.07;;;30.60;;
9334;SDS011;4706;41.844;26.082;2022-12-24T11:55:16;36.40;;;26.07;;
9334;SDS011;4706;41.844;26.082;2022-12-24T11:57:49;36.43;;;27.17;;
9334;SDS011;4706;41.844;26.082;2022-12-24T12:00:20;51.40;;;31.50;;
9334;SDS011;4706;41.844;26.082;2022-12-24T12:02:46;44.80;;;31.37;;
9334;SDS011;4706;41.844;26.082;2022-12-24T12:05:18;38.97;;;28.07;;
9334;SDS011;4706;41.844;26.082;2022-12-24T12:07:51;36.40;;;24.33;;
9334;SDS011;4706;41.844;26.082;2022-12-24T12:10:22;39.37;;;28.47;;
9334;SDS011;4706;41.844;26.082;2022-12-24T12:15:28;36.77;;;27.17;;
9334;SDS011;4706;41.844;26.082;2022-12-24T12:18:14;43.30;;;30.80;;
9334;SDS011;4706;41.844;26.082;2022-12-24T12:20:58;48.83;;;33.97;;
9334;SDS011;4706;41.844;26.082;2022-12-24T12:23:35;49.60;;;37.13;;
9334;SDS011;4706;41.844;26.082;2022-12-24T12:26:13;36.73;;;26.20;;
9334;SDS011;4706;41.844;26.082;2022-12-24T12:28:48;35.70;;;23.67;;
9334;SDS011;4706;41.844;26.082;2022-12-24T12:31:37;44.43;;;32.97;;
9334;SDS011;4706;41.844;26.082;2022-12-24T12:34:11;37.73;;;31.43;;
9334;SDS011;4706;41.844;26.082;2022-12-24T12:37:20;43.30;;;34.60;;
9334;SDS011;4706;41.844;26.082;2022-12-24T12:39:56;32.87;;;26.83;;
9334;SDS011;4706;41.844;26.082;2022-12-24T12:42:26;36.83;;;32.83;;
9334;SDS011;4706;41.844;26.082;2022-12-24T12:45:02;32.03;;;28.23;;
9334;SDS011;4706;41.844;26.082;2022-12-24T12:53:22;39.77;;;25.03;;
9334;SDS011;4706;41.844;26.082;2022-12-24T12:56:07;28.47;;;22.33;;
9334;SDS011;4706;41.844;26.082;2022-12-24T13:01:33;26.53;;;21.47;;
9334;SDS011;4706;41.844;26.082;2022-12-24T13:06:33;28.80;;;23.47;;
9334;SDS011;4706;41.844;26.082;2022-12-24T13:21:10;30.63;;;23.43;;
9334;SDS011;4706;41.844;26.082;2022-12-24T13:23:40;48.23;;;35.43;;
9334;SDS011;4706;41.844;26.082;2022-12-24T13:26:09;36.90;;;29.53;;
9334;SDS011;4706;41.844;26.082;2022-12-24T13:28:37;58.23;;;38.97;;
9334;SDS011;4706;41.844;26.082;2022-12-24T13:36:14;43.03;;;30.53;;
9334;SDS011;4706;41.844;26.082;2022-12-24T13:38:51;36.00;;;28.57;;
9334;SDS011;4706;41.844;26.082;2022-12-24T13:47:32;43.63;;;31.03;;
9334;SDS011;4706;41.844;26.082;2022-12-24T13:49:30;42.83;;;32.83;;
9334;SDS011;4706;41.844;26.082;2022-12-24T13:54:35;39.73;;;31.00;;
9334;SDS011;4706;41.844;26.082;2022-12-24T13:57:14;51.23;;;43.70;;
9334;SDS011;4706;41.844;26.082;2022-12-24T14:00:02;52.93;;;41.23;;
9334;SDS011;4706;41.844;26.082;2022-12-24T14:02:30;68.23;;;47.67;;
9334;SDS011;4706;41.844;26.082;2022-12-24T14:05:00;47.70;;;37.07;;
9334;SDS011;4706;41.844;26.082;2022-12-24T14:07:30;40.27;;;32.27;;
9334;SDS011;4706;41.844;26.082;2022-12-24T14:09:57;40.03;;;32.03;;
9334;SDS011;4706;41.844;26.082;2022-12-24T14:18:15;72.70;;;53.50;;
9334;SDS011;4706;41.844;26.082;2022-12-24T14:20:42;51.60;;;44.30;;
9334;SDS011;4706;41.844;26.082;2022-12-24T14:26:22;40.87;;;33.17;;
9334;SDS011;4706;41.844;26.082;2022-12-24T14:28:59;47.27;;;37.63;;
9334;SDS011;4706;41.844;26.082;2022-12-24T14:31:29;48.13;;;37.87;;
9334;SDS011;4706;41.844;26.082;2022-12-24T14:34:05;89.43;;;71.27;;
9334;SDS011;4706;41.844;26.082;2022-12-24T14:36:32;81.43;;;62.37;;
9334;SDS011;4706;41.844;26.082;2022-12-24T14:38:59;69.70;;;54.33;;
9334;SDS011;4706;41.844;26.082;2022-12-24T14:44:05;60.30;;;39.03;;
9334;SDS011;4706;41.844;26.082;2022-12-24T14:46:47;62.57;;;46.27;;
9334;SDS011;4706;41.844;26.082;2022-12-24T14:49:21;57.93;;;44.27;;
9334;SDS011;4706;41.844;26.082;2022-12-24T14:54:44;63.13;;;51.30;;
9334;SDS011;4706;41.844;26.082;2022-12-24T14:57:13;54.73;;;42.67;;
9334;SDS011;4706;41.844;26.082;2022-12-24T15:00:07;56.57;;;47.17;;
9334;SDS011;4706;41.844;26.082;2022-12-24T15:02:44;54.87;;;42.50;;
9334;SDS011;4706;41.844;26.082;2022-12-24T15:05:23;58.27;;;44.63;;
9334;SDS011;4706;41.844;26.082;2022-12-24T15:12:55;64.63;;;43.97;;
9334;SDS011;4706;41.844;26.082;2022-12-24T15:15:25;69.93;;;45.40;;
9334;SDS011;4706;41.844;26.082;2022-12-24T15:17:51;52.57;;;42.50;;
9334;SDS011;4706;41.844;26.082;2022-12-24T15:20:17;62.23;;;45.50;;
9334;SDS011;4706;41.844;26.082;2022-12-24T15:22:46;59.63;;;44.43;;
9334;SDS011;4706;41.844;26.082;2022-12-24T15:25:16;61.03;;;44.63;;
9334;SDS011;4706;41.844;26.082;2022-12-24T15:28:02;71.30;;;51.83;;
9334;SDS011;4706;41.844;26.082;2022-12-24T15:30:39;80.17;;;60.43;;
9334;SDS011;4706;41.844;26.082;2022-12-24T15:33:05;97.30;;;72.63;;
9334;SDS011;4706;41.844;26.082;2022-12-24T15:35:45;110.13;;;76.40;;
9334;SDS011;4706;41.844;26.082;2022-12-24T15:38:25;151.20;;;108.90;;
9334;SDS011;4706;41.844;26.082;2022-12-24T15:40:51;154.43;;;112.80;;
9334;SDS011;4706;41.844;26.082;2022-12-24T15:43:18;142.50;;;111.77;;
9334;SDS011;4706;41.844;26.082;2022-12-24T15:45:44;156.80;;;119.77;;
9334;SDS011;4706;41.844;26.082;2022-12-24T15:48:12;203.03;;;164.53;;
9334;SDS011;4706;41.844;26.082;2022-12-24T15:50:49;201.57;;;164.80;;
9334;SDS011;4706;41.844;26.082;2022-12-24T15:53:24;177.60;;;136.33;;
9334;SDS011;4706;41.844;26.082;2022-12-24T15:56:07;162.53;;;117.80;;
9334;SDS011;4706;41.844;26.082;2022-12-24T15:59:37;149.90;;;111.73;;
9334;SDS011;4706;41.844;26.082;2022-12-24T16:01:50;151.90;;;123.07;;
9334;SDS011;4706;41.844;26.082;2022-12-24T16:04:22;149.83;;;115.23;;
9334;SDS011;4706;41.844;26.082;2022-12-24T16:06:59;137.93;;;107.57;;
9334;SDS011;4706;41.844;26.082;2022-12-24T16:12:01;136.83;;;103.57;;
9334;SDS011;4706;41.844;26.082;2022-12-24T16:14:35;123.43;;;92.87;;
9334;SDS011;4706;41.844;26.082;2022-12-24T16:17:09;108.53;;;80.23;;
9334;SDS011;4706;41.844;26.082;2022-12-24T16:19:49;113.17;;;81.57;;
9334;SDS011;4706;41.844;26.082;2022-12-24T16:22:18;101.33;;;77.77;;
9334;SDS011;4706;41.844;26.082;2022-12-24T16:25:22;102.37;;;74.53;;
9334;SDS011;4706;41.844;26.082;2022-12-24T16:27:51;90.50;;;69.40;;
9334;SDS011;4706;41.844;26.082;2022-12-24T16:30:17;93.10;;;71.77;;
9334;SDS011;4706;41.844;26.082;2022-12-24T16:32:43;94.37;;;72.10;;
9334;SDS011;4706;41.844;26.082;2022-12-24T16:35:25;95.43;;;72.63;;
9334;SDS011;4706;41.844;26.082;2022-12-24T16:37:52;86.87;;;66.43;;
9334;SDS011;4706;41.844;26.082;2022-12-24T16:40:19;104.87;;;78.57;;
9334;SDS011;4706;41.844;26.082;2022-12-24T16:42:44;101.17;;;76.10;;
9334;SDS011;4706;41.844;26.082;2022-12-24T16:45:28;81.13;;;62.00;;
9334;SDS011;4706;41.844;26.082;2022-12-24T16:47:55;87.77;;;66.73;;
9334;SDS011;4706;41.844;26.082;2022-12-24T16:50:22;89.27;;;67.00;;
9334;SDS011;4706;41.844;26.082;2022-12-24T16:52:48;83.57;;;66.67;;
9334;SDS011;4706;41.844;26.082;2022-12-24T16:55:13;83.70;;;62.87;;
9334;SDS011;4706;41.844;26.082;2022-12-24T16:57:40;70.70;;;54.43;;